createdAt,value
2022-08-10T00:01:52.893Z,6.43
2022-08-10T00:04:24.307Z,3.15
2022-08-10T00:06:55.414Z,2.15
2022-08-10T00:09:23.652Z,3.13
2022-08-10T00:11:50.915Z,3.00
2022-08-10T00:14:18.353Z,4.80
2022-08-10T00:16:45.343Z,2.90
2022-08-10T00:19:12.179Z,3.00
2022-08-10T00:21:39.224Z,2.47
2022-08-10T00:24:06.177Z,4.03
2022-08-10T00:27:52.278Z,5.25
2022-08-10T00:29:21.059Z,3.33
2022-08-10T00:31:58.037Z,5.60
2022-08-10T00:34:25.650Z,3.17
2022-08-10T00:36:52.340Z,3.42
2022-08-10T00:39:19.042Z,3.13
2022-08-10T00:41:45.926Z,3.28
2022-08-10T00:44:32.633Z,2.55
2022-08-10T00:47:00.967Z,2.97
2022-08-10T00:49:28.750Z,3.28
2022-08-10T00:51:56.084Z,4.03
2022-08-10T00:54:24.120Z,2.65
2022-08-10T00:57:17.110Z,1.88
2022-08-10T00:59:58.504Z,2.70
2022-08-10T01:02:25.572Z,3.28
2022-08-10T01:04:59.981Z,4.40
2022-08-10T01:08:05.138Z,3.08
2022-08-10T01:10:52.757Z,3.28
2022-08-10T01:13:33.632Z,1.83
2022-08-10T01:16:25.831Z,4.15
2022-08-10T01:19:03.795Z,5.13
2022-08-10T01:22:01.641Z,3.80
2022-08-10T01:25:03.607Z,4.30
2022-08-10T01:27:45.849Z,4.95
2022-08-10T01:30:14.787Z,5.13
2022-08-10T01:33:10.789Z,3.10
2022-08-10T01:35:47.042Z,3.40
2022-08-10T01:38:19.237Z,4.60
2022-08-10T01:40:52.163Z,2.80
2022-08-10T01:43:20.448Z,2.25
2022-08-10T01:45:53.708Z,3.13
2022-08-10T01:51:21.872Z,4.22
2022-08-10T01:53:57.683Z,2.47
2022-08-10T01:56:26.662Z,3.25
2022-08-10T01:58:58.507Z,2.13
2022-08-10T02:01:29.650Z,4.13
2022-08-10T02:04:05.203Z,4.38
2022-08-10T02:06:45.579Z,5.78
2022-08-10T02:09:17.522Z,3.53
2022-08-10T02:12:05.133Z,2.47
2022-08-10T02:14:34.939Z,5.95
2022-08-10T02:17:05.607Z,3.22
2022-08-10T02:19:35.708Z,3.25
2022-08-10T02:22:36.972Z,3.25
2022-08-10T02:24:52.499Z,2.75
2022-08-10T02:27:22.755Z,6.82
2022-08-10T02:29:51.910Z,4.38
2022-08-10T02:32:36.251Z,4.68
2022-08-10T02:35:17.786Z,5.30
2022-08-10T02:37:51.475Z,4.13
2022-08-10T02:45:11.044Z,3.53
2022-08-10T02:45:22.576Z,3.78
2022-08-10T02:46:08.526Z,2.83
2022-08-10T02:48:44.628Z,2.60
2022-08-10T02:52:06.523Z,4.55
2022-08-10T02:54:37.202Z,4.45
2022-08-10T02:57:13.818Z,3.42
2022-08-10T02:59:45.769Z,5.60
2022-08-10T03:02:16.559Z,4.22
2022-08-10T03:04:55.830Z,5.25
2022-08-10T03:07:44.341Z,3.55
2022-08-10T03:10:17.519Z,2.38
2022-08-10T03:12:49.539Z,1.63
2022-08-10T03:15:19.075Z,4.60
2022-08-10T03:17:57.665Z,5.55
2022-08-10T03:20:36.464Z,2.58
2022-08-10T03:23:11.490Z,2.55
2022-08-10T03:25:39.253Z,4.05
2022-08-10T03:28:07.160Z,2.22
2022-08-10T03:30:35.192Z,2.20
2022-08-10T03:33:07.713Z,5.78
2022-08-10T03:35:34.979Z,2.90
2022-08-10T03:38:02.331Z,2.58
2022-08-10T03:40:45.132Z,2.55
2022-08-10T03:43:23.838Z,4.75
2022-08-10T03:45:56.466Z,2.75
2022-08-10T03:48:44.820Z,1.52
2022-08-10T03:51:13.635Z,1.88
2022-08-10T03:54:05.459Z,2.55
2022-08-10T03:56:31.993Z,2.42
2022-08-10T03:59:00.159Z,3.15
2022-08-10T04:02:46.665Z,3.47
2022-08-10T04:04:17.819Z,3.53
2022-08-10T04:06:51.420Z,3.95
2022-08-10T04:09:22.633Z,5.57
2022-08-10T04:11:49.316Z,7.80
2022-08-10T04:14:44.977Z,1.60
2022-08-10T04:17:02.806Z,2.78
2022-08-10T04:19:34.422Z,4.03
2022-08-10T04:22:08.940Z,3.90
2022-08-10T04:24:38.174Z,3.55
2022-08-10T04:27:05.439Z,3.00
2022-08-10T04:29:32.834Z,3.13
2022-08-10T04:32:01.548Z,6.75
2022-08-10T04:34:31.961Z,4.50
2022-08-10T04:37:08.817Z,3.95
2022-08-10T04:39:36.296Z,6.80
2022-08-10T04:42:03.741Z,3.45
2022-08-10T04:44:30.603Z,5.28
2022-08-10T04:46:58.472Z,2.58
2022-08-10T04:49:55.550Z,3.40
2022-08-10T04:52:13.420Z,4.07
2022-08-10T04:54:40.180Z,2.33
2022-08-10T04:57:09.225Z,4.18
2022-08-10T04:59:36.276Z,3.75
2022-08-10T05:02:30.357Z,3.13
2022-08-10T05:04:49.968Z,3.53
2022-08-10T05:07:18.487Z,3.03
2022-08-10T05:10:03.788Z,4.60
2022-08-10T05:12:38.676Z,4.90
2022-08-10T05:15:07.679Z,3.80
2022-08-10T05:17:35.834Z,7.50
2022-08-10T05:20:06.873Z,5.10
2022-08-10T05:22:46.342Z,4.88
2022-08-10T05:25:18.274Z,5.70
2022-08-10T05:27:46.458Z,4.80
2022-08-10T05:30:19.733Z,3.85
2022-08-10T05:35:27.484Z,5.72
2022-08-10T05:38:09.034Z,3.75
2022-08-10T05:40:46.260Z,4.55
2022-08-10T05:43:15.002Z,4.18
2022-08-10T05:46:19.851Z,3.65
2022-08-10T05:48:57.401Z,5.10
2022-08-10T05:51:20.432Z,5.20
2022-08-10T05:54:01.984Z,4.78
2022-08-10T05:56:54.727Z,1.85
2022-08-10T06:00:34.428Z,4.80
2022-08-10T06:02:31.817Z,3.50
2022-08-10T06:04:57.301Z,2.65
2022-08-10T06:07:27.505Z,3.47
2022-08-10T06:09:59.661Z,2.78
2022-08-10T06:12:30.973Z,3.30
2022-08-10T06:15:05.205Z,3.70
2022-08-10T06:17:33.321Z,3.00
2022-08-10T06:20:01.607Z,4.53
2022-08-10T06:22:32.533Z,7.72
2022-08-10T06:25:37.757Z,2.75
2022-08-10T06:27:49.694Z,2.88
2022-08-10T06:30:19.888Z,4.32
2022-08-10T06:32:51.551Z,3.78
2022-08-10T06:35:23.248Z,4.80
2022-08-10T06:37:54.525Z,5.85
2022-08-10T06:40:22.744Z,3.78
2022-08-10T06:42:53.805Z,5.22
2022-08-10T06:45:23.433Z,4.03
2022-08-10T06:48:02.923Z,5.43
2022-08-10T06:50:56.163Z,3.78
2022-08-10T06:53:52.111Z,3.17
2022-08-10T06:56:37.868Z,2.85
2022-08-10T06:59:26.138Z,2.50
2022-08-10T07:02:05.520Z,2.60
2022-08-10T07:04:51.592Z,3.03
2022-08-10T07:07:20.763Z,3.70
2022-08-10T07:09:49.419Z,4.00
2022-08-10T07:12:17.448Z,2.42
2022-08-10T07:14:46.418Z,5.28
2022-08-10T07:17:18.841Z,2.40
2022-08-10T07:19:57.874Z,2.97
2022-08-10T07:23:27.373Z,4.25
2022-08-10T07:25:21.300Z,4.60
2022-08-10T07:27:59.145Z,4.35
2022-08-10T07:30:36.899Z,4.38
2022-08-10T07:33:05.768Z,5.65
2022-08-10T07:35:42.548Z,4.35
2022-08-10T07:38:22.065Z,4.15
2022-08-10T07:40:51.860Z,6.20
2022-08-10T07:43:22.133Z,4.00
2022-08-10T07:45:53.993Z,2.97
2022-08-10T07:48:29.624Z,3.57
2022-08-10T07:51:00.299Z,4.20
2022-08-10T07:53:38.634Z,4.90
2022-08-10T07:56:20.840Z,3.72
2022-08-10T07:59:06.172Z,6.68
2022-08-10T08:01:35.759Z,3.45
2022-08-10T08:04:05.916Z,5.90
2022-08-10T08:06:40.338Z,5.20
2022-08-10T08:09:07.463Z,3.78
2022-08-10T08:11:36.714Z,4.38
2022-08-10T08:14:08.385Z,5.20
2022-08-10T08:16:40.682Z,4.30
2022-08-10T08:24:04.651Z,4.18
2022-08-10T08:24:47.012Z,4.57
2022-08-10T08:27:16.990Z,3.80
2022-08-10T08:29:47.147Z,4.40
2022-08-10T08:32:18.383Z,4.10
2022-08-10T08:34:47.636Z,5.82
2022-08-10T08:37:18.842Z,6.78
2022-08-10T08:40:12.196Z,5.15
2022-08-10T08:42:57.194Z,3.05
2022-08-10T08:45:35.851Z,4.95
2022-08-10T08:48:11.599Z,4.75
2022-08-10T08:50:57.691Z,2.20
2022-08-10T08:54:01.866Z,4.47
2022-08-10T08:57:08.422Z,4.20
2022-08-10T09:00:13.568Z,4.85
2022-08-10T09:03:07.779Z,3.22
2022-08-10T09:06:02.548Z,3.55
2022-08-10T09:09:11.768Z,4.80
2022-08-10T09:11:59.973Z,5.35
2022-08-10T09:14:38.746Z,3.42
2022-08-10T09:17:25.338Z,4.65
2022-08-10T09:20:16.220Z,4.80
2022-08-10T09:23:08.240Z,3.22
2022-08-10T09:25:38.169Z,4.55
2022-08-10T09:28:08.098Z,4.50
2022-08-10T09:30:52.380Z,6.15
2022-08-10T09:36:23.508Z,4.13
2022-08-10T09:36:56.379Z,6.53
2022-08-10T09:40:58.321Z,3.78
2022-08-10T09:42:21.199Z,4.57
2022-08-10T09:44:58.863Z,2.58
2022-08-10T09:48:00.745Z,3.05
2022-08-10T09:54:07.730Z,3.55
2022-08-10T10:00:13.009Z,2.85
2022-08-10T10:03:13.551Z,2.83
2022-08-10T10:06:12.578Z,5.82
2022-08-10T10:09:36.593Z,3.92
2022-08-10T10:12:16.776Z,4.85
2022-08-10T10:15:25.079Z,3.63
2022-08-10T10:18:07.677Z,5.35
2022-08-10T10:20:56.208Z,5.63
2022-08-10T10:23:40.878Z,4.53
2022-08-10T10:26:22.709Z,3.22
2022-08-10T10:29:30.894Z,4.22
2022-08-10T10:32:13.226Z,5.30
2022-08-10T10:35:09.486Z,3.75
2022-08-10T10:38:01.887Z,4.80
2022-08-10T10:40:27.346Z,3.17
2022-08-10T10:43:31.452Z,3.13
2022-08-10T10:46:33.712Z,6.05
2022-08-10T10:49:22.270Z,4.43
2022-08-10T10:52:04.988Z,3.78
2022-08-10T10:54:41.092Z,3.97
2022-08-10T10:57:58.199Z,4.97
2022-08-10T11:00:13.445Z,3.85
2022-08-10T11:03:30.902Z,3.17
2022-08-10T11:06:39.817Z,4.97
2022-08-10T11:10:04.569Z,6.57
2022-08-10T11:12:19.630Z,4.75
2022-08-10T11:15:05.194Z,3.65
2022-08-10T11:17:48.976Z,5.40
2022-08-10T11:20:22.540Z,5.07
2022-08-10T11:23:40.367Z,4.07
2022-08-10T11:26:14.021Z,4.57
2022-08-10T11:28:47.056Z,6.20
2022-08-10T11:31:25.471Z,9.50
2022-08-10T11:34:47.361Z,5.00
2022-08-10T11:36:57.148Z,3.92
2022-08-10T11:39:49.694Z,2.40
2022-08-10T11:42:36.493Z,4.28
2022-08-10T11:45:14.941Z,4.60
2022-08-10T11:47:41.528Z,3.45
2022-08-10T11:50:11.205Z,3.72
2022-08-10T11:52:55.422Z,4.65
2022-08-10T11:55:32.934Z,4.82
2022-08-10T11:58:45.108Z,5.68
2022-08-10T12:01:15.750Z,5.22
2022-08-10T12:03:44.829Z,4.72
2022-08-10T12:06:17.249Z,2.78
2022-08-10T12:10:05.135Z,7.40
2022-08-10T12:11:40.642Z,6.13
2022-08-10T12:14:22.285Z,5.95
2022-08-10T12:16:55.562Z,3.83
2022-08-10T12:19:31.336Z,6.15
2022-08-10T12:22:23.263Z,3.25
2022-08-10T12:24:57.078Z,2.47
2022-08-10T12:27:52.539Z,2.85
2022-08-10T12:30:26.670Z,5.82
2022-08-10T12:33:07.982Z,5.38
2022-08-10T12:35:37.787Z,4.70
2022-08-10T12:38:15.692Z,5.38
2022-08-10T12:40:50.146Z,3.97
2022-08-10T12:44:04.324Z,5.20
2022-08-10T12:46:20.005Z,4.45
2022-08-10T12:49:17.747Z,8.30
2022-08-10T12:51:58.660Z,6.93
2022-08-10T12:54:32.306Z,6.53
2022-08-10T12:57:10.286Z,5.88
2022-08-10T12:59:50.097Z,8.13
2022-08-10T13:02:24.446Z,5.47
2022-08-10T13:04:53.585Z,4.95
2022-08-10T13:08:25.964Z,6.57
2022-08-10T13:10:18.267Z,5.50
2022-08-10T13:12:48.969Z,10.88
2022-08-10T13:15:49.839Z,7.90
2022-08-10T13:18:25.361Z,6.38
2022-08-10T13:20:54.967Z,5.88
2022-08-10T13:23:27.041Z,5.50
2022-08-10T13:25:56.944Z,8.43
2022-08-10T13:28:39.898Z,5.88
2022-08-10T13:31:11.363Z,4.47
2022-08-10T13:34:39.954Z,7.78
2022-08-10T13:36:38.613Z,6.03
2022-08-10T13:39:08.546Z,9.88
2022-08-10T13:41:41.134Z,9.00
2022-08-10T13:44:17.516Z,10.73
2022-08-10T13:46:51.751Z,4.97
2022-08-10T13:49:21.001Z,7.53
2022-08-10T13:51:54.093Z,5.72
2022-08-10T13:54:27.779Z,5.43
2022-08-10T13:56:58.148Z,2.10
2022-08-10T14:00:34.359Z,4.00
2022-08-10T14:02:25.182Z,2.58
2022-08-10T14:04:54.571Z,5.07
2022-08-10T14:07:24.063Z,2.20
2022-08-10T14:09:53.282Z,2.55
2022-08-10T14:12:32.191Z,4.00
2022-08-10T14:15:03.651Z,1.98
2022-08-10T14:17:32.406Z,2.47
2022-08-10T14:20:02.433Z,1.88
2022-08-10T14:22:33.930Z,1.65
2022-08-10T14:25:09.965Z,3.72
2022-08-10T14:28:03.072Z,4.50
2022-08-10T14:30:31.380Z,3.42
2022-08-10T14:33:04.264Z,2.83
2022-08-10T14:36:19.562Z,1.45
2022-08-10T14:38:31.817Z,2.53
2022-08-10T14:41:02.075Z,4.50
2022-08-10T14:43:35.418Z,1.70
2022-08-10T14:46:11.518Z,2.55
2022-08-10T14:48:47.623Z,2.20
2022-08-10T14:51:18.062Z,1.80
2022-08-10T14:53:54.161Z,2.60
2022-08-10T14:56:33.288Z,4.90
2022-08-10T14:59:07.619Z,4.70
2022-08-10T15:02:00.372Z,3.92
2022-08-10T15:04:28.546Z,6.35
2022-08-10T15:07:01.146Z,3.58
2022-08-10T15:09:59.510Z,3.75
2022-08-10T15:12:27.189Z,2.65
2022-08-10T15:14:58.134Z,2.72
2022-08-10T15:17:36.885Z,5.13
2022-08-10T15:20:20.236Z,3.20
2022-08-10T15:22:56.743Z,4.55
2022-08-10T15:25:26.349Z,2.08
2022-08-10T15:28:05.228Z,8.90
2022-08-10T15:30:43.057Z,4.57
2022-08-10T15:33:57.475Z,2.80
2022-08-10T15:37:01.997Z,3.35
2022-08-10T15:40:24.575Z,2.92
2022-08-10T15:43:20.869Z,2.63
2022-08-10T15:45:59.279Z,5.40
2022-08-10T15:48:30.592Z,2.45
2022-08-10T15:51:05.762Z,1.52
2022-08-10T15:53:48.971Z,2.65
2022-08-10T15:56:34.534Z,5.85
2022-08-10T15:59:19.603Z,5.25
2022-08-10T16:02:14.811Z,4.10
2022-08-10T16:04:57.948Z,6.90
2022-08-10T16:07:45.295Z,5.38
2022-08-10T16:10:26.382Z,6.18
2022-08-10T16:13:01.513Z,4.30
2022-08-10T16:15:31.307Z,3.67
2022-08-10T16:18:04.477Z,4.30
2022-08-10T16:20:48.031Z,5.82
2022-08-10T16:23:35.788Z,8.20
2022-08-10T16:26:15.227Z,4.40
2022-08-10T16:28:49.509Z,4.18
2022-08-10T16:31:25.674Z,4.88
2022-08-10T16:33:55.492Z,7.50
2022-08-10T16:36:32.134Z,6.15
2022-08-10T16:38:59.762Z,8.90
2022-08-10T16:42:03.306Z,7.28
2022-08-10T16:44:19.911Z,8.25
2022-08-10T16:46:48.130Z,8.48
2022-08-10T16:49:18.079Z,11.63
2022-08-10T16:51:49.713Z,7.18
2022-08-10T16:54:26.200Z,8.32
2022-08-10T16:56:59.370Z,8.90
2022-08-10T16:59:30.943Z,6.85
2022-08-10T17:02:00.508Z,8.82
2022-08-10T17:04:29.157Z,11.27
2022-08-10T17:07:02.996Z,9.20
2022-08-10T17:09:33.175Z,9.57
2022-08-10T17:12:06.141Z,14.15
2022-08-10T17:17:05.599Z,9.98
2022-08-10T17:19:39.886Z,10.13
2022-08-10T17:22:26.775Z,7.95
2022-08-10T17:25:00.397Z,12.73
2022-08-10T17:28:32.708Z,9.65
2022-08-10T17:30:34.089Z,9.02
2022-08-10T17:33:16.771Z,11.70
2022-08-10T17:35:48.727Z,8.48
2022-08-10T17:38:21.200Z,12.10
2022-08-10T17:40:57.845Z,8.85
2022-08-10T17:44:00.696Z,8.10
2022-08-10T17:46:14.710Z,20.63
2022-08-10T17:48:43.375Z,9.77
2022-08-10T17:51:14.055Z,12.25
2022-08-10T17:53:48.451Z,7.15
2022-08-10T17:56:23.744Z,8.50
2022-08-10T17:58:55.085Z,8.15
2022-08-10T18:01:40.764Z,11.68
2022-08-10T18:04:19.413Z,8.70
2022-08-10T18:06:56.681Z,7.95
2022-08-10T18:09:34.605Z,5.70
2022-08-10T18:12:10.156Z,7.20
2022-08-10T18:14:38.775Z,7.88
2022-08-10T18:17:15.175Z,9.43
2022-08-10T18:19:46.246Z,6.00
2022-08-10T18:22:14.185Z,8.32
2022-08-10T18:24:42.684Z,8.65
2022-08-10T18:27:12.401Z,7.10
2022-08-10T18:29:42.589Z,6.00
2022-08-10T18:32:11.374Z,5.72
2022-08-10T18:34:41.152Z,7.78
2022-08-10T18:37:19.847Z,7.13
2022-08-10T18:39:49.126Z,8.65
2022-08-10T18:42:21.547Z,8.30
2022-08-10T18:45:04.978Z,13.80
2022-08-10T18:47:35.289Z,15.13
2022-08-10T18:50:12.480Z,12.95
2022-08-10T18:52:43.128Z,11.93
2022-08-10T18:55:24.553Z,10.82
2022-08-10T18:58:01.006Z,8.35
2022-08-10T19:00:53.917Z,11.00
2022-08-10T19:03:39.619Z,8.90
2022-08-10T19:06:45.550Z,7.28
2022-08-10T19:09:47.656Z,4.95
2022-08-10T19:12:36.989Z,8.23
2022-08-10T19:15:16.479Z,4.10
2022-08-10T19:18:14.097Z,4.80
2022-08-10T19:20:59.580Z,4.85
2022-08-10T19:23:34.804Z,4.10
2022-08-10T19:26:37.980Z,6.63
2022-08-10T19:29:10.080Z,4.72
2022-08-10T19:31:54.591Z,5.70
2022-08-10T19:34:38.982Z,5.55
2022-08-10T19:37:37.310Z,5.47
2022-08-10T19:40:16.557Z,8.30
2022-08-10T19:43:09.213Z,4.40
2022-08-10T19:46:01.275Z,7.72
2022-08-10T19:48:43.335Z,3.58
2022-08-10T19:51:30.148Z,4.85
2022-08-10T19:54:03.802Z,4.07
2022-08-10T19:56:40.109Z,3.83
2022-08-10T20:00:16.935Z,3.90
2022-08-10T20:02:26.226Z,4.93
2022-08-10T20:05:07.082Z,3.70
2022-08-10T20:07:58.582Z,4.20
2022-08-10T20:10:42.728Z,5.20
2022-08-10T20:13:25.975Z,4.80
2022-08-10T20:18:42.542Z,3.08
2022-08-10T20:21:16.582Z,5.07
2022-08-10T20:23:56.455Z,4.65
2022-08-10T20:26:41.088Z,4.57
2022-08-10T20:29:16.390Z,4.00
2022-08-10T20:32:24.600Z,5.45
2022-08-10T20:34:58.338Z,4.05
2022-08-10T20:37:43.463Z,3.15
2022-08-10T20:40:53.883Z,4.88
2022-08-10T20:43:32.759Z,5.25
2022-08-10T20:46:28.098Z,5.93
2022-08-10T20:49:22.692Z,5.82
2022-08-10T20:51:58.990Z,6.57
2022-08-10T20:54:35.287Z,4.25
2022-08-10T20:57:55.382Z,5.65
2022-08-10T21:00:13.728Z,7.65
2022-08-10T21:03:20.878Z,5.50
2022-08-10T21:06:03.292Z,3.20
2022-08-10T21:08:46.769Z,4.78
2022-08-10T21:11:32.143Z,6.15
2022-08-10T21:14:20.770Z,4.18
2022-08-10T21:16:50.279Z,3.75
2022-08-10T21:19:56.284Z,3.50
2022-08-10T21:22:31.719Z,5.25
2022-08-10T21:25:29.741Z,5.15
2022-08-10T21:27:59.438Z,4.00
2022-08-10T21:30:47.084Z,5.10
2022-08-10T21:33:45.161Z,4.93
2022-08-10T21:36:27.230Z,4.93
2022-08-10T21:39:16.129Z,6.15
2022-08-10T21:42:43.423Z,5.20
2022-08-10T21:45:59.518Z,5.25
2022-08-10T21:48:57.709Z,6.13
2022-08-10T21:52:05.136Z,5.32
2022-08-10T21:55:10.437Z,4.72
2022-08-10T21:58:15.428Z,2.72
2022-08-10T22:01:06.812Z,4.57
2022-08-10T22:03:59.719Z,4.07
2022-08-10T22:06:52.508Z,5.03
2022-08-10T22:10:00.176Z,3.97
2022-08-10T22:12:52.580Z,4.82
2022-08-10T22:16:03.834Z,5.20
2022-08-10T22:18:58.821Z,4.00
2022-08-10T22:21:59.433Z,4.93
2022-08-10T22:25:19.122Z,6.95
2022-08-10T22:28:12.502Z,5.18
2022-08-10T22:31:30.188Z,5.20
2022-08-10T22:34:59.656Z,3.85
2022-08-10T22:37:53.849Z,5.57
2022-08-10T22:40:42.179Z,3.53
2022-08-10T22:43:38.249Z,3.70
2022-08-10T22:46:42.250Z,5.25
2022-08-10T22:49:09.559Z,4.18
2022-08-10T22:51:54.630Z,5.40
2022-08-10T22:54:42.221Z,3.88
2022-08-10T22:57:34.321Z,4.53
2022-08-10T23:00:31.451Z,5.35
2022-08-10T23:03:22.444Z,5.07
2022-08-10T23:06:04.357Z,4.43
2022-08-10T23:08:40.965Z,3.65
2022-08-10T23:11:12.711Z,5.35
2022-08-10T23:13:43.799Z,4.53
2022-08-10T23:16:36.232Z,3.78
2022-08-10T23:19:24.806Z,5.80
2022-08-10T23:22:15.860Z,4.47
2022-08-10T23:25:04.416Z,4.60
2022-08-10T23:27:38.628Z,5.63
2022-08-10T23:30:16.973Z,5.95
2022-08-10T23:32:48.021Z,3.53
2022-08-10T23:36:05.514Z,6.72
2022-08-10T23:38:09.409Z,4.95
2022-08-10T23:40:36.912Z,4.22
2022-08-10T23:43:05.575Z,4.63
2022-08-10T23:45:53.179Z,4.13
2022-08-10T23:48:23.419Z,6.70
2022-08-10T23:50:59.595Z,4.13
2022-08-10T23:53:30.887Z,6.43
2022-08-10T23:56:05.227Z,4.30
2022-08-10T23:58:36.056Z,4.28
